LEBBLEZG

Guest
Details From LEBB - Bilbao
To LEZG - Zaragoza AB
Flight Number -
Tags decoded
Created
Modified
Stats Distance 131 nm / 242 km
Max Altitude 0 ft / 0 m
Waypoints 3
Social Downloads 1
Likes 0
Share VATSIM

Download

Looking for another format? Having issues loading an existing format? Contact us
Advertisement - Login to hide

Notes

Requested: LEBB CEGAM LEZG

Route

LEBB CEGAM LEZG

ID Type Via Altitude Latitude Longitude Leg Dist Tot Dist Heading (true) Name
O LEBB APT - 0 ft / 0 m 43.30169˚ -2.91766˚ - 0 nm - Bilbao
CEGAM FIX - 0 ft / 0 m 42.98373˚ -2.23637˚ 35 nm 35 nm 122° / 123° -
O LEZG APT - 0 ft / 0 m 41.66703˚ -1.04356˚ 95 nm 130 nm 146° / 147° Zaragoza AB

Altitude Profile

Advertisement - Login to hide

LEBB

Details ICAO LEBB (BIO)
Name Bilbao
Region Spain
Timezone Europe/Madrid (UTC+2.0)
Stats Elevation 137 ft / 42 m (AMSL)
Location 43.301692° -2.917664°
Runways 2
Magnetic Variation 0.575° W

METAR

LEBB 211130Z 29011KT 250V320 9999 FEW035 21/14 Q1010 NOSIG

Decode

TAF

TAF LEBB 210500Z 2106/2206 VRB03KT 8000 FEW020 TX25/2114Z TN10/2107Z PROB40 TEMPO 2106/2109 3000 BR BKN010 TEMPO 2112/2121 VRB15G30KT 3000 SHRA TS SCT030TCU SCT040CB PROB40 TEMPO 2121/2206 3000 BR BKN005 BKN010 PROB40 TEMPO 2200/2206 0350 FG VV001

Decode

Departure Runways

ID Width Length Bearing (true) Bearing (mag) Surface Threshold Offset Overrun Length
10 148 ft / 45 m 6,569 ft / 2,002 m 96.66° 97.23° Asphalt 20 ft / 6 m 184 ft / 56 m
12 148 ft / 45 m 8,539 ft / 2,603 m 116.73° 117.30° Asphalt 20 ft / 6 m 197 ft / 60 m
28 148 ft / 45 m 6,569 ft / 2,002 m 276.68° 277.25° Asphalt 23 ft / 7 m 0 ft / 0 m
30 148 ft / 45 m 8,539 ft / 2,603 m 296.75° 297.32° Asphalt 1,509 ft / 460 m 171 ft / 52 m

LEZG

Details ICAO LEZG (ZAZ)
Name Zaragoza AB
Region Spain
Timezone Europe/Madrid (UTC+2.0)
Stats Elevation 862 ft / 263 m (AMSL)
Location 41.667030° -1.043559°
Runways 2
Magnetic Variation 0.040° E

METAR

LEZG 211130Z 08005KT 010V160 9999 FEW080 24/10 Q1011

Decode

TAF

TAF LEZG 210500Z 2106/2206 12007KT 9999 SCT030 TX27/2113Z TN14/2106Z PROB30 TEMPO 2106/2107 4000 BR BKN013 TEMPO 2112/2118 FEW030CB BECMG 2112/2115 25018G30KT BECMG 2120/2122 VRB03KT PROB40 TEMPO 2112/2121 4000 TSRA SCT030CB BKN040

Decode

Destination Runways

ID Width Length Bearing (true) Bearing (mag) Surface Threshold Offset Overrun Length
12L 148 ft / 45 m 9,934 ft / 3,028 m 120.12° 120.08° Asphalt 0 ft / 0 m 984 ft / 300 m
12R 148 ft / 45 m 12,181 ft / 3,713 m 120.10° 120.06° Asphalt 0 ft / 0 m 984 ft / 300 m
30L 148 ft / 45 m 12,181 ft / 3,713 m 300.12° 300.08° Asphalt 0 ft / 0 m 984 ft / 300 m
30R 148 ft / 45 m 9,934 ft / 3,028 m 300.14° 300.10° Asphalt 0 ft / 0 m 607 ft / 185 m

Approach Navaids

Runway Type Ident Frequency Range Bearing (true) Bearing (mag) Slope Elevation
30R Localiser IZZA 109.50 MHz 18 nm / 33 km 300.12° 300.07° - 862 ft / 263 m (AMSL)
30R Glidescope IZZA 109.50 MHz 10 nm / 19 km 300.13° 300.09° 2.50° 862 ft / 263 m (AMSL)